Time;durP1;ratioP1;P1;durP2;ratioP2;P2;SDS_P1;SDS_P2;PMS_P1;PMS_P2;Temp;Humidity;BMP_temperature;BMP_pressure;BME280_temperature;BME280_humidity;BME280_pressure;Samples;Min_cycle;Max_cycle;Signal;HPM_P1;HPM_P2
2023/10/14 00:01:13;;;;;;;0.50;0.50;;;;;;;7.83;65.83;96496.59;6296758;28;20151;-67
2023/10/14 00:04:26;;;;;;;0.47;0.47;;;;;;;7.82;65.97;96484.44;6279262;28;20040;-66
2023/10/14 00:07:35;;;;;;;0.43;0.43;;;;;;;7.87;65.88;96482.38;6279083;28;20036;-67
2023/10/14 00:10:39;;;;;;;0.45;0.35;;;;;;;7.73;66.12;96474.47;6277846;28;20515;-66
2023/10/14 00:13:42;;;;;;;0.77;0.40;;;;;;;7.63;66.46;96482.91;6295579;28;20045;-66
2023/10/14 00:16:49;;;;;;;0.80;0.47;;;;;;;7.49;67.25;96482.88;6295535;28;20048;-66
2023/10/14 00:19:55;;;;;;;0.57;0.30;;;;;;;7.56;67.28;96478.13;6295512;28;20503;-66
2023/10/14 00:22:59;;;;;;;0.35;0.35;;;;;;;7.67;66.89;96480.09;6296247;28;20155;-66
2023/10/14 00:26:00;;;;;;;1.55;0.47;;;;;;;7.48;67.48;96489.03;6296182;28;20135;-67
2023/10/14 00:29:38;;;;;;;0.40;0.30;;;;;;;7.44;68.01;96482.28;6296083;28;20041;-66
2023/10/14 00:32:31;;;;;;;0.55;0.50;;;;;;;7.50;68.14;96488.94;6292548;28;20056;-66
2023/10/14 00:35:39;;;;;;;0.60;0.20;;;;;;;7.39;68.55;96493.06;6295783;28;20102;-67
2023/10/14 00:38:45;;;;;;;0.30;0.30;;;;;;;7.34;69.00;96499.47;6277875;28;20075;-67
2023/10/14 00:41:50;;;;;;;0.30;0.30;;;;;;;7.34;69.32;96504.72;6277964;28;20419;-66
2023/10/14 00:44:52;;;;;;;0.40;0.40;;;;;;;7.35;69.22;96501.16;6277555;28;20044;-67
2023/10/14 00:47:59;;;;;;;0.57;0.50;;;;;;;7.34;69.04;96500.31;6295255;28;20048;-66
2023/10/14 00:51:04;;;;;;;1.88;0.43;;;;;;;7.35;68.83;96506.41;6295164;28;20119;-67
2023/10/14 00:54:10;;;;;;;0.40;0.40;;;;;;;7.40;69.50;96525.28;6294594;28;20041;-67
2023/10/14 01:00:22;;;;;;;1.00;0.40;;;;;;;7.47;69.20;96500.44;6295310;28;20093;-67
2023/10/14 01:03:31;;;;;;;0.95;0.50;;;;;;;7.52;69.19;96516.72;6277153;28;20070;-67
2023/10/14 01:06:53;;;;;;;0.47;0.47;;;;;;;7.40;69.48;96510.44;6294770;28;20492;-66
2023/10/14 01:09:55;;;;;;;0.40;0.40;;;;;;;7.42;69.76;96512.97;6294363;28;20052;-66
2023/10/14 01:13:06;;;;;;;1.75;0.60;;;;;;;7.48;69.72;96520.47;6294161;28;20139;-66
2023/10/14 01:16:10;;;;;;;0.50;0.50;;;;;;;7.44;69.75;96516.31;6294641;28;20049;-67
2023/10/14 01:19:11;;;;;;;0.73;0.60;;;;;;;7.42;69.76;96512.97;6294181;28;20424;-67
2023/10/14 01:22:18;;;;;;;1.58;0.50;;;;;;;7.43;69.79;96510.25;6294703;28;20036;-66
2023/10/14 01:25:24;;;;;;;0.60;0.40;;;;;;;7.33;70.46;96508.25;6276388;28;20424;-67
2023/10/14 01:28:29;;;;;;;0.40;0.20;;;;;;;7.51;69.70;96509.81;6294026;28;20197;-66
2023/10/14 01:32:10;;;;;;;0.30;0.30;;;;;;;7.53;69.88;96505.34;6294684;28;20037;-67
2023/10/14 01:35:13;;;;;;;0.50;0.50;;;;;;;7.23;71.16;96507.09;6294813;28;20033;-67
2023/10/14 01:38:17;;;;;;;0.43;0.43;;;;;;;7.04;71.82;96492.44;6259806;28;20052;-67
2023/10/14 01:41:19;;;;;;;0.63;0.60;;;;;;;7.20;71.85;96503.72;6293555;28;20455;-68
2023/10/14 01:44:25;;;;;;;0.90;0.45;;;;;;;6.97;72.32;96486.72;6294391;28;20044;-69
2023/10/14 01:47:32;;;;;;;0.30;0.30;;;;;;;7.04;72.32;96496.84;6294422;28;20072;-68
2023/10/14 01:50:34;;;;;;;1.08;0.77;;;;;;;7.05;72.33;96488.91;6293746;28;20052;-67
2023/10/14 01:53:38;;;;;;;0.70;0.70;;;;;;;7.03;72.36;96493.38;6293340;28;20052;-68
2023/10/14 01:56:40;;;;;;;;;;;;;;;7.22;72.01;96492.31;6293730;28;20095;-66
2023/10/14 01:59:41;;;;;;;0.80;0.80;;;;;;;7.08;72.28;96493.97;6294008;28;19920;-67
2023/10/14 02:02:48;;;;;;;0.65;0.65;;;;;;;6.97;72.73;96496.34;6294153;28;20048;-67
2023/10/14 02:05:52;;;;;;;0.82;0.60;;;;;;;7.09;72.11;96485.19;6293227;28;20135;-66
2023/10/14 02:09:00;;;;;;;1.20;0.73;;;;;;;7.02;72.49;96494.31;6293685;28;20056;-68
2023/10/14 02:12:11;;;;;;;0.80;0.60;;;;;;;6.93;72.98;96492.22;6293857;28;20449;-67
2023/10/14 02:15:18;;;;;;;0.93;0.80;;;;;;;6.85;73.31;96499.63;6293980;28;20041;-68
2023/10/14 02:18:22;;;;;;;;;;;;;;;6.86;73.04;96511.81;6294510;28;20036;-66
2023/10/14 02:21:32;;;;;;;0.50;0.50;;;;;;;6.97;73.17;96514.66;6293920;28;20006;-67
2023/10/14 02:24:34;;;;;;;0.73;0.43;;;;;;;7.03;72.32;96516.94;6293206;28;20254;-67
2023/10/14 02:27:41;;;;;;;0.77;0.77;;;;;;;7.00;72.73;96524.94;6276474;28;20048;-66
2023/10/14 02:30:51;;;;;;;0.75;0.60;;;;;;;6.96;72.79;96520.81;6293120;28;20084;-66
2023/10/14 02:34:08;;;;;;;1.95;0.60;;;;;;;7.04;72.32;96523.84;6276075;28;20462;-66
2023/10/14 02:37:15;;;;;;;0.73;0.40;;;;;;;6.96;72.83;96515.56;6293749;28;20044;-67
2023/10/14 02:40:23;;;;;;;1.10;0.60;;;;;;;7.04;72.10;96529.06;6298080;28;20041;-67
2023/10/14 02:43:29;;;;;;;1.23;0.85;;;;;;;6.99;72.20;96531.09;6298481;28;20036;-67
2023/10/14 02:46:30;;;;;;;0.80;0.80;;;;;;;7.13;72.03;96533.81;6298243;28;20490;-67
2023/10/14 02:49:37;;;;;;;0.60;0.60;;;;;;;7.24;71.09;96535.78;6297830;28;20532;-67
2023/10/14 02:52:39;;;;;;;3.58;0.80;;;;;;;7.27;71.05;96535.59;6297406;28;20151;-68
2023/10/14 02:55:52;;;;;;;0.63;0.60;;;;;;;7.31;70.84;96531.06;6298284;28;20047;-67
2023/10/14 02:58:54;;;;;;;1.40;1.08;;;;;;;7.18;70.95;96542.22;6297397;28;20519;-67
2023/10/14 03:02:15;;;;;;;0.55;0.55;;;;;;;7.33;70.70;96530.06;6297434;28;20122;-67
2023/10/14 03:05:35;;;;;;;1.00;0.90;;;;;;;7.27;70.78;96545.25;6266404;28;20059;-67
2023/10/14 03:08:37;;;;;;;1.45;1.23;;;;;;;7.32;70.65;96537.97;6297280;28;20083;-67
2023/10/14 03:11:39;;;;;;;1.67;1.13;;;;;;;7.24;70.72;96554.09;6297761;28;20040;-67
2023/10/14 03:14:42;;;;;;;1.20;1.00;;;;;;;7.26;70.78;96538.34;6296742;28;20048;-68
2023/10/14 03:18:05;;;;;;;1.88;1.00;;;;;;;7.28;71.03;96558.25;6296914;28;20067;-66
2023/10/14 03:21:21;;;;;;;1.38;1.20;;;;;;;7.35;70.73;96569.22;6297639;28;20090;-68
2023/10/14 03:24:25;;;;;;;2.53;1.30;;;;;;;7.22;71.50;96573.44;6297165;28;20408;-68
2023/10/14 03:27:32;;;;;;;1.77;1.60;;;;;;;7.35;70.58;96556.13;6297262;28;20105;-67
2023/10/14 03:30:37;;;;;;;3.15;1.58;;;;;;;7.51;70.16;96564.78;6296694;28;20052;-67
2023/10/14 03:33:46;;;;;;;1.80;1.70;;;;;;;7.60;69.90;96564.25;6297515;28;20307;-67
2023/10/14 03:37:00;;;;;;;3.20;2.05;;;;;;;7.69;69.37;96567.28;6297367;28;20041;-67
2023/10/14 03:43:27;;;;;;;1.92;1.40;;;;;;;7.77;68.95;96549.34;6281762;28;20057;-67
2023/10/14 03:46:42;;;;;;;1.65;1.40;;;;;;;7.76;69.06;96550.28;6296231;28;20049;-68
2023/10/14 03:49:55;;;;;;;1.92;1.77;;;;;;;7.55;69.58;96566.28;6278107;28;20135;-67
2023/10/14 03:52:57;;;;;;;3.50;2.47;;;;;;;7.80;69.17;96570.09;6296257;28;20080;-67
2023/10/14 03:56:04;;;;;;;6.75;4.68;;;;;;;7.94;68.65;96567.50;6296899;28;20071;-66
2023/10/14 03:59:12;;;;;;;3.47;2.40;;;;;;;7.98;68.32;96566.41;6296846;28;20036;-67
2023/10/14 04:02:20;;;;;;;4.65;2.65;;;;;;;8.01;68.27;96562.75;6296696;28;20551;-67
2023/10/14 04:05:22;;;;;;;2.80;2.60;;;;;;;8.24;67.68;96564.00;6296062;28;20135;-67
2023/10/14 04:08:34;;;;;;;2.83;2.13;;;;;;;8.37;66.77;96537.88;6296432;28;20410;-67
2023/10/14 04:11:38;;;;;;;4.60;2.15;;;;;;;8.54;66.14;96556.91;6296304;28;20028;-66
2023/10/14 04:14:40;;;;;;;2.95;2.50;;;;;;;8.57;65.56;96549.78;6296280;28;20043;-67
2023/10/14 04:17:54;;;;;;;3.60;2.60;;;;;;;8.71;65.47;96552.41;6296205;28;20049;-67
2023/10/14 04:33:56;;;;;;;3.30;2.22;;;;;;;9.21;63.44;96564.94;6295193;28;20072;-67
2023/10/14 04:37:08;;;;;;;2.95;2.20;;;;;;;8.66;65.38;96559.69;6295730;28;20055;-67
2023/10/14 04:40:24;;;;;;;4.63;3.65;;;;;;;8.35;67.20;96560.72;6294797;28;20055;-66
2023/10/14 04:46:46;;;;;;;3.20;2.90;;;;;;;8.21;69.70;96577.28;6295530;28;20036;-67
2023/10/14 04:49:51;;;;;;;3.03;2.72;;;;;;;8.44;69.34;96581.19;6294832;28;20545;-67
2023/10/14 04:52:57;;;;;;;2.60;2.35;;;;;;;8.38;68.33;96574.50;6295043;28;20049;-66
2023/10/14 04:56:04;;;;;;;5.03;2.50;;;;;;;8.63;67.16;96570.38;6295303;28;20044;-68
2023/10/14 04:59:08;;;;;;;3.22;2.63;;;;;;;8.68;66.35;96573.56;6294797;28;20049;-67
2023/10/14 05:02:20;;;;;;;2.25;1.88;;;;;;;8.76;65.69;96581.81;6295075;28;20529;-66
2023/10/14 05:05:22;;;;;;;5.25;2.15;;;;;;;8.90;64.50;96573.91;6294462;28;20049;-66
2023/10/14 05:08:44;;;;;;;2.63;2.05;;;;;;;8.93;64.45;96578.97;6295138;28;20041;-66
2023/10/14 05:11:50;;;;;;;2.53;2.05;;;;;;;9.30;63.89;96587.13;6293952;28;20052;-67
2023/10/14 05:14:55;;;;;;;3.67;2.17;;;;;;;10.14;62.65;96583.38;6294305;28;20071;-67
2023/10/14 05:18:00;;;;;;;2.90;2.28;;;;;;;10.76;61.02;96578.22;6293733;28;20102;-66
2023/10/14 05:21:20;;;;;;;3.22;2.00;;;;;;;10.74;59.67;96597.69;6294694;28;20056;-67
2023/10/14 05:24:31;;;;;;;2.47;1.90;;;;;;;10.58;59.32;96590.00;6293931;28;20082;-67
2023/10/14 05:27:45;;;;;;;2.88;1.73;;;;;;;10.47;58.87;96575.00;6294552;28;20131;-66
2023/10/14 05:30:50;;;;;;;1.90;1.30;;;;;;;10.12;58.20;96569.47;6275789;28;20063;-67
2023/10/14 05:34:00;;;;;;;3.13;2.40;;;;;;;10.14;57.17;96572.84;6276000;28;20048;-66
2023/10/14 05:37:08;;;;;;;3.10;2.40;;;;;;;14.08;49.33;96560.66;6294468;28;20143;-66
2023/10/14 05:40:13;;;;;;;1.38;1.25;;;;;;;15.55;45.28;96574.41;6293906;28;20503;-67
2023/10/14 05:43:21;;;;;;;1.40;0.82;;;;;;;15.10;45.36;96585.47;6294323;28;20511;-67
2023/10/14 05:46:23;;;;;;;3.38;1.88;;;;;;;14.47;46.06;96582.09;6294062;28;20586;-67
2023/10/14 05:49:27;;;;;;;1.75;1.45;;;;;;;15.09;45.51;96577.63;6294026;28;20043;-66
2023/10/14 05:52:35;;;;;;;2.53;1.67;;;;;;;14.86;46.22;96592.88;6293805;28;20045;-67
2023/10/14 05:55:41;;;;;;;2.05;1.85;;;;;;;14.08;47.22;96587.13;6294069;28;20044;-67
2023/10/14 05:58:45;;;;;;;3.42;2.13;;;;;;;12.94;48.83;96584.91;6293899;28;20052;-66
2023/10/14 06:01:51;;;;;;;2.33;1.50;;;;;;;11.99;50.95;96587.75;6293168;28;20052;-67
2023/10/14 06:04:55;;;;;;;5.35;2.05;;;;;;;11.34;52.92;96591.63;6293732;28;20036;-67
2023/10/14 06:08:16;;;;;;;;;;;;;;;10.81;54.01;96595.47;6294140;28;20131;-66
2023/10/14 06:11:21;;;;;;;2.88;1.80;;;;;;;10.29;55.77;96606.00;6292884;28;19927;-66
2023/10/14 06:14:25;;;;;;;6.75;2.38;;;;;;;9.75;57.82;96642.88;6293221;28;20499;-66
2023/10/14 06:17:26;;;;;;;4.43;2.42;;;;;;;8.81;61.27;96668.94;6293188;28;20455;-66
2023/10/14 06:20:28;;;;;;;4.93;3.33;;;;;;;7.69;64.62;96658.94;6275265;28;20048;-67
2023/10/14 06:23:33;;;;;;;4.70;3.00;;;;;;;6.83;67.57;96653.19;6293232;28;20194;-66
2023/10/14 06:26:39;;;;;;;3.75;2.20;;;;;;;6.35;69.76;96639.16;6293570;28;20045;-66
2023/10/14 06:29:42;;;;;;;;;;;;;;;6.38;70.36;96650.28;6275446;28;20067;-67
2023/10/14 06:32:49;;;;;;;2.97;2.00;;;;;;;6.37;71.45;96640.78;6293760;28;19920;-67
2023/10/14 06:36:03;;;;;;;3.90;2.10;;;;;;;6.71;71.81;96645.06;6292258;28;20178;-67
2023/10/14 06:39:14;;;;;;;3.13;2.17;;;;;;;7.37;71.52;96648.50;6292884;28;20088;-67
2023/10/14 06:42:19;;;;;;;4.15;2.85;;;;;;;8.53;70.05;96644.38;6293310;28;20044;-69
2023/10/14 06:45:31;;;;;;;3.05;2.28;;;;;;;10.66;67.26;96648.22;6293444;28;20496;-68
2023/10/14 06:48:33;;;;;;;3.85;2.47;;;;;;;14.71;59.69;96648.84;6292661;28;20144;-67
2023/10/14 06:51:36;;;;;;;2.90;2.22;;;;;;;15.38;56.07;96659.91;6292172;28;20067;-67
2023/10/14 06:54:37;;;;;;;3.08;2.40;;;;;;;15.57;54.60;96667.06;6292582;28;20083;-67
2023/10/14 06:57:47;;;;;;;2.93;1.50;;;;;;;14.91;53.80;96660.41;6292486;28;20427;-67
2023/10/14 07:00:48;;;;;;;3.53;2.35;;;;;;;13.33;55.88;96670.72;6293250;28;20063;-67
2023/10/14 07:03:52;;;;;;;3.95;2.55;;;;;;;11.94;56.65;96673.44;6292398;28;20045;-67
2023/10/14 07:06:58;;;;;;;3.00;2.38;;;;;;;10.92;57.42;96682.41;6275113;28;20052;-67
2023/10/14 07:10:03;;;;;;;3.95;3.05;;;;;;;10.14;58.12;96671.91;6293019;28;20071;-67
2023/10/14 07:13:09;;;;;;;7.70;3.20;;;;;;;9.60;58.54;96680.66;6293406;28;20429;-66
2023/10/14 07:16:11;;;;;;;5.40;3.70;;;;;;;9.13;59.91;96677.47;6274925;28;20087;-67
2023/10/14 07:19:12;;;;;;;5.85;4.00;;;;;;;8.82;60.89;96683.75;6293127;28;20515;-67
2023/10/14 07:22:23;;;;;;;7.60;3.85;;;;;;;8.66;62.09;96670.72;6293273;28;20504;-68
2023/10/14 07:25:26;;;;;;;5.97;3.42;;;;;;;8.81;61.32;96663.72;6295646;28;20121;-67
2023/10/14 07:28:30;;;;;;;4.80;2.63;;;;;;;8.92;60.95;96666.53;6296613;28;20189;-67
2023/10/14 07:31:36;;;;;;;3.10;2.10;;;;;;;9.05;60.47;96671.00;6297333;28;20036;-67
2023/10/14 07:34:37;;;;;;;3.60;2.83;;;;;;;9.06;60.39;96670.91;6296629;28;20044;-68
2023/10/14 07:37:48;;;;;;;4.45;3.13;;;;;;;9.13;60.47;96680.09;6295532;28;20052;-67
2023/10/14 07:40:52;;;;;;;3.25;2.38;;;;;;;9.26;59.30;96659.16;6296913;28;20040;-68
2023/10/14 07:43:56;;;;;;;3.33;2.25;;;;;;;9.38;59.33;96673.31;6296051;28;20041;-66
2023/10/14 07:47:00;;;;;;;;;;;;;;;9.73;59.79;96668.41;6296039;28;20048;-66
2023/10/14 07:50:09;;;;;;;4.22;2.30;;;;;;;10.28;58.33;96674.50;6296926;28;19916;-67
2023/10/14 07:53:22;;;;;;;3.67;2.28;;;;;;;10.78;55.37;96668.44;6296678;28;20052;-68
2023/10/14 07:56:24;;;;;;;3.67;2.60;;;;;;;10.98;54.76;96668.81;6297022;28;20504;-66
2023/10/14 07:59:34;;;;;;;2.65;1.40;;;;;;;11.20;51.89;96673.44;6278446;28;20052;-67
2023/10/14 08:02:36;;;;;;;3.55;1.98;;;;;;;10.96;51.92;96665.47;6294980;28;20060;-66
2023/10/14 08:05:40;;;;;;;6.30;1.90;;;;;;;10.85;52.45;96668.00;6295949;28;20048;-67
2023/10/14 08:08:50;;;;;;;1.90;1.40;;;;;;;10.77;53.50;96666.72;6279159;28;20040;-67
2023/10/14 08:11:56;;;;;;;2.35;1.40;;;;;;;11.14;52.74;96652.81;6295782;28;20148;-67
2023/10/14 08:14:59;;;;;;;2.65;2.00;;;;;;;14.34;46.16;96657.22;6295293;28;20576;-67
2023/10/14 08:18:04;;;;;;;;;;;;;;;18.46;43.15;96668.31;6277698;28;20056;-68
2023/10/14 08:21:05;;;;;;;;;;;;;;;21.20;41.41;96677.75;6296556;28;19943;-67
2023/10/14 08:24:14;;;;;;;1.60;1.08;;;;;;;19.70;39.40;96668.94;6296313;28;19928;-66
2023/10/14 08:27:16;;;;;;;1.48;1.00;;;;;;;17.31;39.14;96665.34;6295734;28;20307;-67
2023/10/14 08:30:24;;;;;;;1.80;1.10;;;;;;;15.20;39.95;96676.47;6295839;28;20044;-67
2023/10/14 08:33:30;;;;;;;3.05;1.23;;;;;;;13.57;40.07;96656.53;6295931;28;20040;-68
2023/10/14 08:36:34;;;;;;;2.88;1.50;;;;;;;12.66;41.31;96665.41;6295112;28;20037;-68
2023/10/14 08:39:44;;;;;;;2.30;0.90;;;;;;;12.13;40.27;96653.50;6295602;28;20044;-68
2023/10/14 08:42:49;;;;;;;3.10;1.50;;;;;;;11.75;40.69;96663.34;6294717;28;20075;-67
2023/10/14 08:45:54;;;;;;;2.28;1.52;;;;;;;11.45;40.38;96640.91;6294796;28;20139;-68
2023/10/14 08:49:03;;;;;;;3.70;1.65;;;;;;;11.20;40.52;96658.47;6295169;28;20039;-67
2023/10/14 08:52:16;;;;;;;4.03;1.20;;;;;;;11.12;39.88;96665.22;6295218;28;20151;-67
2023/10/14 08:55:20;;;;;;;4.50;1.92;;;;;;;11.05;40.03;96659.56;6295075;28;20523;-67
2023/10/14 08:58:25;;;;;;;4.40;2.05;;;;;;;11.21;40.95;96665.44;6295222;28;20048;-67
2023/10/14 09:01:27;;;;;;;2.88;1.70;;;;;;;11.64;40.36;96656.25;6276678;28;20044;-66
2023/10/14 09:04:30;;;;;;;1.95;1.38;;;;;;;13.44;37.79;96673.38;6294694;28;20048;-67
2023/10/14 09:07:35;;;;;;;3.05;1.10;;;;;;;13.88;36.47;96670.78;6293893;28;20569;-66
2023/10/14 09:10:43;;;;;;;1.52;1.13;;;;;;;17.23;32.44;96680.22;6294841;28;20040;-67
2023/10/14 09:13:45;;;;;;;2.70;1.08;;;;;;;20.40;28.19;96665.91;6293572;28;20048;-66
2023/10/14 09:16:49;;;;;;;3.13;1.38;;;;;;;22.37;25.12;96668.91;6277376;28;20120;-67
2023/10/14 09:19:53;;;;;;;2.38;0.82;;;;;;;23.42;23.49;96680.75;6293852;28;20422;-67
2023/10/14 09:23:17;;;;;;;1.88;1.02;;;;;;;24.37;22.56;96679.88;6294505;28;20064;-67
2023/10/14 09:26:21;;;;;;;2.20;1.83;;;;;;;22.94;22.71;96672.16;6294730;28;20032;-66
2023/10/14 09:29:26;;;;;;;1.02;0.68;;;;;;;20.44;25.64;96681.59;6294481;28;20052;-67
2023/10/14 09:32:35;;;;;;;1.85;1.00;;;;;;;17.76;28.87;96670.72;6293371;28;20059;-66
2023/10/14 09:35:42;;;;;;;2.97;1.20;;;;;;;16.10;31.68;96674.75;6294274;28;20048;-66
2023/10/14 09:38:51;;;;;;;2.20;0.80;;;;;;;15.04;33.50;96679.59;6294471;28;20036;-67
2023/10/14 09:41:54;;;;;;;1.95;1.20;;;;;;;14.09;34.72;96700.75;6294315;28;20074;-67
2023/10/14 09:45:05;;;;;;;3.83;1.73;;;;;;;13.66;35.82;96682.22;6294356;28;20626;-67
2023/10/14 09:48:09;;;;;;;4.63;2.13;;;;;;;15.64;33.44;96690.28;6292429;28;20537;-66
2023/10/14 09:51:18;;;;;;;1.67;1.30;;;;;;;19.02;28.95;96695.56;6293797;28;20037;-67
2023/10/14 09:54:23;;;;;;;4.22;1.45;;;;;;;18.73;28.47;96686.00;6292860;28;20140;-67
2023/10/14 09:57:32;;;;;;;2.13;1.30;;;;;;;17.56;29.67;96685.97;6293718;28;20150;-67
2023/10/14 10:00:40;;;;;;;3.35;2.20;;;;;;;16.10;31.49;96702.13;6293732;28;20538;-67
2023/10/14 10:03:56;;;;;;;3.03;1.83;;;;;;;15.08;33.47;96692.56;6293952;28;20047;-66
2023/10/14 10:07:42;;;;;;;5.18;1.80;;;;;;;15.54;32.95;96694.72;6294102;28;20040;-67
2023/10/14 10:10:47;;;;;;;3.27;1.57;;;;;;;14.54;33.61;96691.81;6293163;28;20602;-67
2023/10/14 10:13:50;;;;;;;2.50;1.85;;;;;;;13.65;34.99;96691.97;6293715;28;20036;-67
2023/10/14 10:17:03;;;;;;;3.10;1.60;;;;;;;13.10;36.24;96682.25;6293949;28;20036;-67
2023/10/14 10:20:09;;;;;;;2.92;1.42;;;;;;;14.70;34.05;96686.91;6275418;28;20056;-68
2023/10/14 10:23:10;;;;;;;2.88;1.50;;;;;;;14.00;34.67;96672.41;6293175;28;20056;-67
2023/10/14 10:26:17;;;;;;;3.28;1.98;;;;;;;12.92;36.50;96700.38;6293176;28;20055;-67
2023/10/14 10:29:24;;;;;;;3.58;2.08;;;;;;;12.18;37.70;96707.72;6292846;28;20072;-67
2023/10/14 10:32:34;;;;;;;3.65;1.50;;;;;;;12.41;37.56;96704.22;6292842;28;20046;-66
2023/10/14 10:35:55;;;;;;;4.20;1.75;;;;;;;12.79;36.95;96697.81;6291900;28;20444;-68
2023/10/14 10:39:16;;;;;;;4.28;2.00;;;;;;;11.92;38.26;96702.56;6275964;28;20053;-67
2023/10/14 10:42:23;;;;;;;2.95;1.83;;;;;;;11.21;39.88;96697.03;6275723;28;20037;-67
2023/10/14 10:45:32;;;;;;;2.75;1.75;;;;;;;10.84;40.81;96692.63;6293443;28;20036;-67
2023/10/14 10:48:39;;;;;;;3.28;2.42;;;;;;;10.67;41.47;96701.69;6293515;28;20036;-67
2023/10/14 10:52:15;;;;;;;2.80;2.13;;;;;;;10.42;41.85;96697.25;6292427;28;20059;-67
2023/10/14 10:55:17;;;;;;;3.33;1.55;;;;;;;10.20;42.45;96711.78;6292864;28;20131;-68
2023/10/14 10:58:23;;;;;;;3.75;2.05;;;;;;;10.11;42.85;96709.75;6292623;28;20057;-66
2023/10/14 11:01:28;;;;;;;6.95;3.65;;;;;;;10.05;43.19;96711.00;6297135;28;20051;-67
2023/10/14 11:04:36;;;;;;;10.57;6.13;;;;;;;10.03;43.39;96714.69;6298097;28;20040;-69
2023/10/14 11:07:43;;;;;;;11.82;6.72;;;;;;;10.08;43.45;96718.69;6298153;28;20049;-68
2023/10/14 11:10:48;;;;;;;6.88;4.32;;;;;;;9.94;44.00;96713.50;6297775;28;20041;-68
2023/10/14 11:13:52;;;;;;;5.63;2.85;;;;;;;9.90;44.01;96719.88;6297280;28;20048;-68
2023/10/14 11:17:01;;;;;;;6.07;2.85;;;;;;;9.87;44.07;96722.69;6294446;28;20048;-68
2023/10/14 11:20:05;;;;;;;4.30;2.67;;;;;;;10.03;44.13;96727.81;6297364;28;20048;-67
2023/10/14 11:23:10;;;;;;;3.00;1.98;;;;;;;10.07;43.96;96729.28;6297042;28;20139;-67
2023/10/14 11:26:17;;;;;;;3.55;1.73;;;;;;;10.10;43.86;96736.97;6297850;28;20036;-67
2023/10/14 11:29:23;;;;;;;3.38;1.98;;;;;;;10.04;43.84;96734.75;6296599;28;20044;-67
2023/10/14 11:32:27;;;;;;;3.05;1.52;;;;;;;9.85;44.21;96746.47;6296452;28;20049;-67
2023/10/14 11:35:34;;;;;;;2.13;1.60;;;;;;;9.86;44.10;96753.41;6296931;28;20041;-67
2023/10/14 11:38:47;;;;;;;3.88;1.70;;;;;;;9.84;44.31;96750.03;6279538;28;20052;-67
2023/10/14 11:41:51;;;;;;;3.28;2.08;;;;;;;9.85;44.18;96751.72;6297112;28;20040;-67
2023/10/14 11:44:58;;;;;;;3.50;1.85;;;;;;;9.65;44.64;96747.75;6296975;28;20063;-67
2023/10/14 11:48:02;;;;;;;7.57;5.25;;;;;;;9.60;44.41;96751.59;6297020;28;20040;-67
2023/10/14 11:51:11;;;;;;;5.30;3.28;;;;;;;9.50;44.67;96747.84;6279495;28;20234;-67
2023/10/14 11:54:15;;;;;;;5.15;2.80;;;;;;;9.46;45.18;96770.00;6278388;28;20055;-66
2023/10/14 11:57:18;;;;;;;2.58;1.98;;;;;;;9.38;45.09;96737.16;6278151;28;20057;-67
2023/10/14 12:00:21;;;;;;;2.10;1.33;;;;;;;9.59;44.82;96755.13;6296835;28;20043;-66
2023/10/14 12:03:26;;;;;;;4.32;1.60;;;;;;;9.70;44.48;96741.34;6296141;28;20055;-67
2023/10/14 12:06:34;;;;;;;2.75;1.70;;;;;;;10.10;43.59;96758.00;6296578;28;20059;-67
2023/10/14 12:09:42;;;;;;;3.28;1.38;;;;;;;9.82;43.94;96751.06;6296674;28;20419;-67
2023/10/14 12:12:52;;;;;;;3.42;1.85;;;;;;;9.75;44.56;96740.09;6294699;28;20055;-67
2023/10/14 12:15:56;;;;;;;4.18;2.90;;;;;;;9.67;45.27;96747.63;6295187;28;20084;-67
2023/10/14 12:18:59;;;;;;;3.13;2.15;;;;;;;9.48;45.95;96753.19;6295734;28;20052;-67
2023/10/14 12:22:02;;;;;;;4.05;2.50;;;;;;;9.29;46.40;96757.91;6296505;28;20045;-66
2023/10/14 12:25:04;;;;;;;11.65;5.65;;;;;;;9.34;46.09;96753.19;6295734;28;20041;-66
2023/10/14 12:28:11;;;;;;;13.18;7.70;;;;;;;9.35;46.09;96750.47;6296011;28;20048;-67
2023/10/14 12:31:23;;;;;;;9.52;5.88;;;;;;;9.26;46.14;96758.09;6291983;28;20055;-67
2023/10/14 12:34:28;;;;;;;5.82;3.95;;;;;;;9.04;46.41;96748.06;6295974;28;20044;-68
2023/10/14 12:37:33;;;;;;;3.90;2.05;;;;;;;8.96;46.44;96765.09;6294840;28;20048;-67
2023/10/14 12:40:37;;;;;;;15.27;6.90;;;;;;;8.83;46.48;96752.81;6295670;28;20426;-67
2023/10/14 12:43:41;;;;;;;7.70;4.95;;;;;;;9.08;46.23;96765.28;6295547;28;20036;-68
2023/10/14 12:46:45;;;;;;;4.68;2.88;;;;;;;9.26;45.31;96768.59;6295532;28;20411;-67
2023/10/14 12:49:50;;;;;;;3.88;2.30;;;;;;;9.32;45.79;96779.56;6295677;28;20454;-67
2023/10/14 12:53:03;;;;;;;2.83;2.10;;;;;;;9.40;45.58;96781.72;6294466;28;20048;-67
2023/10/14 12:56:09;;;;;;;2.60;1.48;;;;;;;9.39;45.47;96775.59;6294213;28;20435;-67
2023/10/14 12:59:16;;;;;;;3.38;1.73;;;;;;;9.31;45.49;96798.88;6294420;28;20209;-67
2023/10/14 13:02:22;;;;;;;2.05;1.50;;;;;;;9.23;45.50;96790.63;6295342;28;20158;-67
2023/10/14 13:05:25;;;;;;;;;;;;;;;9.15;45.47;96785.00;6294578;28;20171;-67
2023/10/14 13:08:26;;;;;;;3.03;1.30;;;;;;;9.04;45.69;96792.69;6293687;28;19931;-67
2023/10/14 13:11:31;;;;;;;3.50;1.58;;;;;;;8.99;45.37;96793.78;6295143;28;20036;-66
2023/10/14 13:14:37;;;;;;;2.00;1.30;;;;;;;8.87;45.77;96794.53;6294499;28;20125;-67
2023/10/14 13:17:43;;;;;;;2.70;1.40;;;;;;;8.84;45.86;96789.47;6294812;28;20041;-67
2023/10/14 13:20:47;;;;;;;3.58;1.38;;;;;;;8.67;46.27;96792.22;6293481;28;20055;-67
2023/10/14 13:23:51;;;;;;;4.32;1.75;;;;;;;8.69;46.41;96800.84;6293666;28;20630;-67
2023/10/14 13:26:55;;;;;;;2.03;1.17;;;;;;;8.62;46.53;96796.91;6294505;28;20043;-68
2023/10/14 13:29:59;;;;;;;2.25;1.40;;;;;;;8.51;46.79;96787.84;6293423;28;20560;-66
2023/10/14 13:33:08;;;;;;;7.20;2.80;;;;;;;8.48;47.06;96801.16;6277160;28;20419;-68
2023/10/14 13:36:13;;;;;;;8.20;2.53;;;;;;;8.42;47.18;96801.50;6294670;28;20048;-67
2023/10/14 13:39:18;;;;;;;4.47;2.25;;;;;;;8.39;47.55;96799.06;6293674;28;20063;-67
2023/10/14 13:42:23;;;;;;;4.22;1.73;;;;;;;8.41;47.14;96812.94;6293387;28;20131;-67
2023/10/14 13:45:24;;;;;;;1.50;1.40;;;;;;;8.38;47.10;96812.22;6293268;28;20049;-68
2023/10/14 13:48:31;;;;;;;3.72;1.55;;;;;;;8.43;46.51;96811.06;6294395;28;20526;-68
2023/10/14 13:51:35;;;;;;;2.78;2.00;;;;;;;8.36;46.79;96820.19;6294001;28;20141;-68
2023/10/14 13:54:41;;;;;;;4.15;1.92;;;;;;;8.47;46.19;96817.84;6293096;28;20045;-68
2023/10/14 13:57:46;;;;;;;3.05;1.45;;;;;;;8.48;45.88;96819.50;6293103;28;20071;-67
2023/10/14 14:00:50;;;;;;;3.20;1.75;;;;;;;8.40;46.21;96821.72;6293430;28;20052;-67
2023/10/14 14:04:01;;;;;;;3.05;1.80;;;;;;;8.38;45.87;96823.56;6293748;28;20045;-67
2023/10/14 14:07:06;;;;;;;3.88;2.17;;;;;;;8.41;45.83;96831.28;6293268;28;20053;-67
2023/10/14 14:10:16;;;;;;;4.00;2.47;;;;;;;8.28;46.43;96835.50;6293039;28;20052;-67
2023/10/14 14:13:23;;;;;;;3.67;1.90;;;;;;;8.22;46.19;96833.22;6294071;28;20052;-68
2023/10/14 14:16:27;;;;;;;2.85;1.63;;;;;;;8.11;46.43;96831.19;6293349;28;20170;-67
2023/10/14 14:19:38;;;;;;;3.13;1.35;;;;;;;8.07;47.10;96841.00;6293699;28;20040;-68
2023/10/14 14:22:41;;;;;;;1.67;1.33;;;;;;;7.91;47.31;96860.28;6293688;28;20151;-68
2023/10/14 14:25:43;;;;;;;1.98;1.30;;;;;;;7.78;47.70;96842.59;6293177;28;20139;-68
2023/10/14 14:28:50;;;;;;;1.95;1.75;;;;;;;7.74;47.95;96842.84;6293603;28;20044;-67
2023/10/14 14:31:58;;;;;;;3.42;1.70;;;;;;;7.59;48.34;96855.84;6293723;28;20044;-67
2023/10/14 14:35:09;;;;;;;2.67;1.65;;;;;;;7.56;48.06;96855.16;6296176;28;20040;-67
2023/10/14 14:38:15;;;;;;;2.95;1.67;;;;;;;7.56;48.45;96863.88;6293483;28;20056;-66
2023/10/14 14:41:25;;;;;;;2.15;1.17;;;;;;;7.49;48.62;96854.63;6298045;28;20048;-67
2023/10/14 14:44:27;;;;;;;2.65;1.80;;;;;;;7.38;49.13;96856.97;6280014;28;20133;-68
2023/10/14 14:47:30;;;;;;;;;;;;;;;7.24;48.99;96851.59;6299061;28;20032;-67
2023/10/14 14:50:34;;;;;;;2.70;1.52;;;;;;;7.07;49.46;96858.53;6298530;28;19927;-67
2023/10/14 14:53:36;;;;;;;3.03;1.80;;;;;;;6.98;49.92;96854.63;6297170;28;20059;-67
2023/10/14 14:56:37;;;;;;;4.93;2.35;;;;;;;6.83;50.16;96854.56;6298294;28;20037;-67
2023/10/14 14:59:38;;;;;;;4.20;2.75;;;;;;;6.71;50.56;96872.56;6298304;28;20044;-67
2023/10/14 15:02:46;;;;;;;3.78;2.35;;;;;;;6.67;50.83;96871.00;6279966;28;20052;-67
2023/10/14 15:05:51;;;;;;;4.63;3.15;;;;;;;6.68;50.84;96887.53;6298238;28;20040;-68
2023/10/14 15:08:55;;;;;;;4.32;2.05;;;;;;;6.68;50.44;96883.19;6297313;28;20052;-67
2023/10/14 15:11:56;;;;;;;;;;;;;;;6.75;50.19;96888.94;6297517;28;20415;-66